createdAt,value
2023-04-25T00:01:39.383Z,5.57
2023-04-25T00:04:09.415Z,5.68
2023-04-25T00:06:38.300Z,6.50
2023-04-25T00:09:10.688Z,6.70
2023-04-25T00:11:39.354Z,6.00
2023-04-25T00:14:07.942Z,4.93
2023-04-25T00:16:36.317Z,6.35
2023-04-25T00:19:04.796Z,6.60
2023-04-25T00:21:35.212Z,6.55
2023-04-25T00:24:03.189Z,5.57
2023-04-25T00:26:31.437Z,6.78
2023-04-25T00:28:59.537Z,6.78
2023-04-25T00:31:27.551Z,5.68
2023-04-25T00:33:55.885Z,6.10
2023-04-25T00:36:24.151Z,7.22
2023-04-25T00:38:52.143Z,6.03
2023-04-25T00:41:21.375Z,6.95
2023-04-25T00:43:50.970Z,4.95
2023-04-25T00:46:19.344Z,7.47
2023-04-25T00:48:47.678Z,6.03
2023-04-25T00:51:20.522Z,6.00
2023-04-25T00:53:53.356Z,5.40
2023-04-25T00:56:22.686Z,5.75
2023-04-25T00:58:53.976Z,5.53
2023-04-25T01:01:22.518Z,5.43
2023-04-25T01:03:52.562Z,5.40
2023-04-25T01:06:21.214Z,6.85
2023-04-25T01:08:49.695Z,5.43
2023-04-25T01:11:17.861Z,6.10
2023-04-25T01:13:45.809Z,6.10
2023-04-25T01:16:13.897Z,5.28
2023-04-25T01:18:43.154Z,5.32
2023-04-25T01:21:12.392Z,3.97
2023-04-25T01:23:41.907Z,5.85
2023-04-25T01:26:11.819Z,6.50
2023-04-25T01:28:42.600Z,5.60
2023-04-25T01:31:12.739Z,5.68
2023-04-25T01:33:41.146Z,6.62
2023-04-25T01:36:09.836Z,6.75
2023-04-25T01:38:41.670Z,6.75
2023-04-25T01:41:09.759Z,5.62
2023-04-25T01:43:37.757Z,6.30
2023-04-25T01:46:06.304Z,7.47
2023-04-25T01:48:34.425Z,5.65
2023-04-25T01:51:02.454Z,6.93
2023-04-25T01:53:31.658Z,6.50
2023-04-25T01:56:00.421Z,5.55
2023-04-25T01:58:30.710Z,6.65
2023-04-25T02:00:59.603Z,5.68
2023-04-25T02:03:28.841Z,5.32
2023-04-25T02:05:57.512Z,6.68
2023-04-25T02:08:28.010Z,6.03
2023-04-25T02:10:56.487Z,4.07
2023-04-25T02:13:24.710Z,5.35
2023-04-25T02:15:53.454Z,6.35
2023-04-25T02:18:22.533Z,5.28
2023-04-25T02:20:50.938Z,6.00
2023-04-25T02:23:20.446Z,5.50
2023-04-25T02:25:49.762Z,5.78
2023-04-25T02:28:17.747Z,5.22
2023-04-25T02:30:46.782Z,5.10
2023-04-25T02:33:14.839Z,4.62
2023-04-25T02:35:42.796Z,4.68
2023-04-25T02:38:11.333Z,4.78
2023-04-25T02:40:41.979Z,5.78
2023-04-25T02:43:10.052Z,5.12
2023-04-25T02:45:39.092Z,4.15
2023-04-25T02:48:07.278Z,4.55
2023-04-25T02:50:35.296Z,4.40
2023-04-25T02:53:03.779Z,4.93
2023-04-25T02:55:32.468Z,4.80
2023-04-25T02:58:02.378Z,4.90
2023-04-25T03:00:31.637Z,4.15
2023-04-25T03:02:59.841Z,4.43
2023-04-25T03:05:27.859Z,5.22
2023-04-25T03:07:56.284Z,4.15
2023-04-25T03:10:25.085Z,5.10
2023-04-25T03:12:53.163Z,4.25
2023-04-25T03:15:21.569Z,5.18
2023-04-25T03:17:49.612Z,4.85
2023-04-25T03:20:17.560Z,4.78
2023-04-25T03:22:46.311Z,4.28
2023-04-25T03:25:14.272Z,4.90
2023-04-25T03:27:42.270Z,5.15
2023-04-25T03:30:10.994Z,5.55
2023-04-25T03:32:39.657Z,5.62
2023-04-25T03:35:08.798Z,4.28
2023-04-25T03:37:37.345Z,4.68
2023-04-25T03:40:05.929Z,4.60
2023-04-25T03:42:36.051Z,5.28
2023-04-25T03:45:06.938Z,5.05
2023-04-25T03:47:35.179Z,6.00
2023-04-25T03:50:04.231Z,4.93
2023-04-25T03:52:32.745Z,4.93
2023-04-25T03:55:00.843Z,5.68
2023-04-25T03:57:33.564Z,4.10
2023-04-25T04:00:02.836Z,4.10
2023-04-25T04:02:43.888Z,3.95
2023-04-25T04:07:44.713Z,5.68
2023-04-25T04:10:13.786Z,4.43
2023-04-25T04:12:42.558Z,4.90
2023-04-25T04:15:11.185Z,4.45
2023-04-25T04:17:39.949Z,4.15
2023-04-25T04:20:10.002Z,4.82
2023-04-25T04:22:39.663Z,4.37
2023-04-25T04:25:09.040Z,4.25
2023-04-25T04:27:41.895Z,4.60
2023-04-25T04:30:14.355Z,5.00
2023-04-25T04:32:50.720Z,3.92
2023-04-25T04:35:31.388Z,3.85
2023-04-25T04:37:59.895Z,4.30
2023-04-25T04:40:28.384Z,5.07
2023-04-25T04:42:57.828Z,5.43
2023-04-25T04:45:28.934Z,4.18
2023-04-25T04:47:57.110Z,4.45
2023-04-25T04:50:25.229Z,4.65
2023-04-25T04:52:53.705Z,4.40
2023-04-25T04:55:22.068Z,4.82
2023-04-25T04:57:51.464Z,4.95
2023-04-25T05:00:20.271Z,4.90
2023-04-25T05:02:49.571Z,4.93
2023-04-25T05:05:18.750Z,4.55
2023-04-25T05:07:47.696Z,4.57
2023-04-25T05:10:19.813Z,4.47
2023-04-25T05:12:52.185Z,4.07
2023-04-25T05:15:21.817Z,4.45
2023-04-25T05:17:51.714Z,5.37
2023-04-25T05:20:21.005Z,4.03
2023-04-25T05:22:50.606Z,4.37
2023-04-25T05:25:19.325Z,3.97
2023-04-25T05:27:48.721Z,3.80
2023-04-25T05:30:16.800Z,2.92
2023-04-25T05:32:45.644Z,4.75
2023-04-25T05:35:13.794Z,4.80
2023-04-25T05:37:42.369Z,3.20
2023-04-25T05:40:22.779Z,6.07
2023-04-25T05:42:52.560Z,7.90
2023-04-25T05:45:23.456Z,5.53
2023-04-25T05:47:52.068Z,4.18
2023-04-25T05:50:20.353Z,4.55
2023-04-25T05:52:49.472Z,6.37
2023-04-25T05:55:18.890Z,5.47
2023-04-25T05:57:47.727Z,4.62
2023-04-25T06:00:17.813Z,4.20
2023-04-25T06:02:46.845Z,3.53
2023-04-25T06:05:20.391Z,4.70
2023-04-25T06:07:49.940Z,3.12
2023-04-25T06:10:18.000Z,4.07
2023-04-25T06:12:46.294Z,4.05
2023-04-25T06:15:28.076Z,5.75
2023-04-25T06:17:57.603Z,6.72
2023-04-25T06:20:26.570Z,6.95
2023-04-25T06:22:55.536Z,11.73
2023-04-25T06:25:26.400Z,14.18
2023-04-25T06:27:58.980Z,15.35
2023-04-25T06:30:27.471Z,13.52
2023-04-25T06:32:57.258Z,10.30
2023-04-25T06:35:25.885Z,5.53
2023-04-25T06:38:19.902Z,4.15
2023-04-25T06:40:48.680Z,3.65
2023-04-25T06:43:17.768Z,2.90
2023-04-25T06:45:48.582Z,3.08
2023-04-25T06:48:23.410Z,2.53
2023-04-25T06:50:58.034Z,2.70
2023-04-25T06:53:26.655Z,2.97
2023-04-25T06:55:55.669Z,2.75
2023-04-25T06:58:23.778Z,2.90
2023-04-25T07:00:52.781Z,2.22
2023-04-25T07:03:21.764Z,3.17
2023-04-25T07:05:50.027Z,2.22
2023-04-25T07:08:18.871Z,2.95
2023-04-25T07:10:49.774Z,2.80
2023-04-25T07:13:18.498Z,3.03
2023-04-25T07:15:46.885Z,3.42
2023-04-25T07:18:14.846Z,4.22
2023-04-25T07:20:43.314Z,3.25
2023-04-25T07:23:11.537Z,3.40
2023-04-25T07:25:40.014Z,3.65
2023-04-25T07:28:08.823Z,3.08
2023-04-25T07:30:38.093Z,3.00
2023-04-25T07:33:06.058Z,3.58
2023-04-25T07:35:35.399Z,3.37
2023-04-25T07:38:04.598Z,3.92
2023-04-25T07:40:33.175Z,4.32
2023-04-25T07:43:04.564Z,4.30
2023-04-25T07:45:33.735Z,3.85
2023-04-25T07:48:02.856Z,3.55
2023-04-25T07:50:32.982Z,2.72
2023-04-25T07:53:01.113Z,2.00
2023-04-25T07:55:29.893Z,2.12
2023-04-25T07:57:58.692Z,2.53
2023-04-25T08:00:30.381Z,3.20
2023-04-25T08:03:04.337Z,2.40
2023-04-25T08:05:33.585Z,2.40
2023-04-25T08:08:03.607Z,3.42
2023-04-25T08:10:31.778Z,2.83
2023-04-25T08:13:00.514Z,2.03
2023-04-25T08:15:29.001Z,1.92
2023-04-25T08:17:57.166Z,2.15
2023-04-25T08:20:25.214Z,2.10
2023-04-25T08:22:54.644Z,2.60
2023-04-25T08:25:23.917Z,2.47
2023-04-25T08:27:52.039Z,2.33
2023-04-25T08:30:22.450Z,3.33
2023-04-25T08:32:51.769Z,3.17
2023-04-25T08:35:22.368Z,2.53
2023-04-25T08:37:50.850Z,2.58
2023-04-25T08:40:20.521Z,3.45
2023-04-25T08:42:51.981Z,3.90
2023-04-25T08:45:20.334Z,3.45
2023-04-25T08:47:50.174Z,3.97
2023-04-25T08:50:18.670Z,3.28
2023-04-25T08:52:49.890Z,3.10
2023-04-25T08:55:18.675Z,3.67
2023-04-25T08:57:48.746Z,3.22
2023-04-25T09:00:19.892Z,2.90
2023-04-25T09:02:49.010Z,3.42
2023-04-25T09:05:18.394Z,3.40
2023-04-25T09:07:48.547Z,5.53
2023-04-25T09:10:18.771Z,5.40
2023-04-25T09:13:05.494Z,4.25
2023-04-25T09:15:35.149Z,3.58
2023-04-25T09:18:05.328Z,3.62
2023-04-25T09:20:37.549Z,3.50
2023-04-25T09:23:08.366Z,4.78
2023-04-25T09:25:40.343Z,4.55
2023-04-25T09:28:09.237Z,3.03
2023-04-25T09:30:38.401Z,3.87
2023-04-25T09:33:16.376Z,3.20
2023-04-25T09:35:46.843Z,3.90
2023-04-25T09:38:19.656Z,4.93
2023-04-25T09:40:53.589Z,4.68
2023-04-25T09:43:23.662Z,4.00
2023-04-25T09:45:59.312Z,4.00
2023-04-25T09:48:31.334Z,4.05
2023-04-25T09:51:08.131Z,3.55
2023-04-25T09:53:38.644Z,2.60
2023-04-25T09:56:11.249Z,2.80
2023-04-25T09:58:42.230Z,2.75
2023-04-25T10:01:12.291Z,3.45
2023-04-25T10:03:41.962Z,2.28
2023-04-25T10:06:20.181Z,2.28
2023-04-25T10:08:56.029Z,2.83
2023-04-25T10:11:26.399Z,3.25
2023-04-25T10:13:56.820Z,3.17
2023-04-25T10:16:26.607Z,3.67
2023-04-25T10:18:55.287Z,2.60
2023-04-25T10:21:23.377Z,3.10
2023-04-25T10:23:51.800Z,3.30
2023-04-25T10:26:21.052Z,2.83
2023-04-25T10:29:03.706Z,3.17
2023-04-25T10:31:32.721Z,3.83
2023-04-25T10:34:03.698Z,4.30
2023-04-25T10:36:35.580Z,3.85
2023-04-25T10:39:08.679Z,2.87
2023-04-25T10:41:55.165Z,2.22
2023-04-25T10:44:23.256Z,2.10
2023-04-25T10:46:51.640Z,3.03
2023-04-25T10:49:35.066Z,3.28
2023-04-25T10:52:26.438Z,3.03
2023-04-25T10:54:56.876Z,3.00
2023-04-25T10:57:52.611Z,3.37
2023-04-25T11:00:25.628Z,2.67
2023-04-25T11:03:00.886Z,2.72
2023-04-25T11:08:07.903Z,3.10
2023-04-25T11:10:37.002Z,2.33
2023-04-25T11:13:06.407Z,3.28
2023-04-25T11:15:34.847Z,2.92
2023-04-25T11:18:03.370Z,2.92
2023-04-25T11:20:32.179Z,3.42
2023-04-25T11:25:33.288Z,2.75
2023-04-25T11:28:02.804Z,3.28
2023-04-25T11:30:33.683Z,2.65
2023-04-25T11:33:04.162Z,2.93
2023-04-25T11:35:32.410Z,2.40
2023-04-25T11:38:00.209Z,2.78
2023-04-25T11:40:28.534Z,3.15
2023-04-25T11:42:56.391Z,2.00
2023-04-25T11:45:25.271Z,2.80
2023-04-25T11:47:53.624Z,2.87
2023-04-25T11:50:21.663Z,3.20
2023-04-25T11:52:50.211Z,2.62
2023-04-25T11:55:20.502Z,2.60
2023-04-25T11:57:51.490Z,2.60
2023-04-25T12:00:22.487Z,2.75
2023-04-25T12:02:56.717Z,3.00
2023-04-25T12:05:33.304Z,3.30
2023-04-25T12:08:16.141Z,2.97
2023-04-25T12:10:46.753Z,2.72
2023-04-25T12:13:26.064Z,2.80
2023-04-25T12:15:57.264Z,2.70
2023-04-25T12:18:29.209Z,2.20
2023-04-25T12:20:57.440Z,3.10
2023-04-25T12:23:29.716Z,2.50
2023-04-25T12:25:57.663Z,2.70
2023-04-25T12:28:28.964Z,3.03
2023-04-25T12:31:08.138Z,2.42
2023-04-25T12:33:38.361Z,2.70
2023-04-25T12:36:11.543Z,3.45
2023-04-25T12:38:41.886Z,3.30
2023-04-25T12:41:10.626Z,3.92
2023-04-25T12:43:38.706Z,2.90
2023-04-25T12:46:07.300Z,2.80
2023-04-25T12:48:35.323Z,2.85
2023-04-25T12:51:03.471Z,3.25
2023-04-25T12:53:33.226Z,2.92
2023-04-25T12:56:02.505Z,3.35
2023-04-25T12:58:30.703Z,2.70
2023-04-25T13:00:59.024Z,2.60
2023-04-25T13:03:30.208Z,2.58
2023-04-25T13:05:58.885Z,3.10
2023-04-25T13:11:13.097Z,2.72
2023-04-25T13:13:41.470Z,2.10
2023-04-25T13:16:10.234Z,2.12
2023-04-25T13:18:38.543Z,2.28
2023-04-25T13:21:06.417Z,2.30
2023-04-25T13:23:34.501Z,2.60
2023-04-25T13:26:03.245Z,2.95
2023-04-25T13:28:31.244Z,2.08
2023-04-25T13:30:59.402Z,1.83
2023-04-25T13:33:27.705Z,2.12
2023-04-25T13:35:56.707Z,2.22
2023-04-25T13:38:25.920Z,1.90
2023-04-25T13:40:54.733Z,2.37
2023-04-25T13:43:26.369Z,2.40
2023-04-25T13:45:54.727Z,2.03
2023-04-25T13:48:24.015Z,2.30
2023-04-25T13:50:52.463Z,1.75
2023-04-25T13:53:21.352Z,2.33
2023-04-25T13:55:57.273Z,2.47
2023-04-25T13:58:28.498Z,2.20
2023-04-25T14:00:56.379Z,2.50
2023-04-25T14:03:24.968Z,2.20
2023-04-25T14:05:52.905Z,2.15
2023-04-25T14:08:21.430Z,2.42
2023-04-25T14:10:49.811Z,2.10
2023-04-25T14:13:17.877Z,1.92
2023-04-25T14:15:45.947Z,2.10
2023-04-25T14:18:14.429Z,2.85
2023-04-25T14:20:43.135Z,2.25
2023-04-25T14:23:11.522Z,1.90
2023-04-25T14:25:39.884Z,2.08
2023-04-25T14:28:07.943Z,2.60
2023-04-25T14:30:36.057Z,2.80
2023-04-25T14:33:04.983Z,3.22
2023-04-25T14:35:33.624Z,3.72
2023-04-25T14:38:01.597Z,2.92
2023-04-25T14:40:30.146Z,2.47
2023-04-25T14:43:00.717Z,2.30
2023-04-25T14:45:29.212Z,1.73
2023-04-25T14:47:57.823Z,2.00
2023-04-25T14:50:26.310Z,1.62
2023-04-25T14:52:54.328Z,21.00
2023-04-25T14:55:23.417Z,3.28
2023-04-25T14:57:51.573Z,2.00
2023-04-25T15:00:21.863Z,2.70
2023-04-25T15:02:50.984Z,2.15
2023-04-25T15:05:19.358Z,2.00
2023-04-25T15:07:49.131Z,2.15
2023-04-25T15:10:21.681Z,1.52
2023-04-25T15:12:51.229Z,2.30
2023-04-25T15:15:25.931Z,2.42
2023-04-25T15:17:59.076Z,2.65
2023-04-25T15:20:28.894Z,2.60
2023-04-25T15:22:57.111Z,3.08
2023-04-25T15:25:25.509Z,3.03
2023-04-25T15:27:56.254Z,3.40
2023-04-25T15:30:27.814Z,2.65
2023-04-25T15:32:56.723Z,2.65
2023-04-25T15:35:24.717Z,3.05
2023-04-25T15:37:52.895Z,11.05
2023-04-25T15:40:21.572Z,2.83
2023-04-25T15:42:54.096Z,2.42
2023-04-25T15:45:26.513Z,2.62
2023-04-25T15:47:57.615Z,2.00
2023-04-25T15:50:26.593Z,2.53
2023-04-25T15:52:54.912Z,2.40
2023-04-25T15:55:25.762Z,2.92
2023-04-25T15:57:54.675Z,3.30
2023-04-25T16:00:23.134Z,3.58
2023-04-25T16:02:52.027Z,3.78
2023-04-25T16:05:21.184Z,5.70
2023-04-25T16:07:54.109Z,3.70
2023-04-25T16:10:22.480Z,3.45
2023-04-25T16:12:50.858Z,2.80
2023-04-25T16:15:19.013Z,3.95
2023-04-25T16:17:47.562Z,2.90
2023-04-25T16:20:16.026Z,2.10
2023-04-25T16:22:44.874Z,2.45
2023-04-25T16:25:13.848Z,2.67
2023-04-25T16:27:42.283Z,2.60
2023-04-25T16:30:12.164Z,2.70
2023-04-25T16:32:43.228Z,2.28
2023-04-25T16:35:13.600Z,2.15
2023-04-25T16:37:54.588Z,2.35
2023-04-25T16:40:22.707Z,2.35
2023-04-25T16:42:51.555Z,3.95
2023-04-25T16:45:20.638Z,2.78
2023-04-25T16:47:48.852Z,3.00
2023-04-25T16:50:17.699Z,2.22
2023-04-25T16:52:46.256Z,2.42
2023-04-25T16:55:14.340Z,2.12
2023-04-25T16:57:42.730Z,2.20
2023-04-25T17:00:11.289Z,2.45
2023-04-25T17:02:39.616Z,2.42
2023-04-25T17:05:09.172Z,2.45
2023-04-25T17:07:37.226Z,3.08
2023-04-25T17:10:18.273Z,2.55
2023-04-25T17:12:48.026Z,2.40
2023-04-25T17:15:16.616Z,2.17
2023-04-25T17:17:44.845Z,2.80
2023-04-25T17:20:16.385Z,2.65
2023-04-25T17:25:30.540Z,2.35
2023-04-25T17:27:58.516Z,1.95
2023-04-25T17:30:27.226Z,2.65
2023-04-25T17:32:55.939Z,2.50
2023-04-25T17:36:08.653Z,2.70
2023-04-25T17:38:39.361Z,2.42
2023-04-25T17:41:08.436Z,2.37
2023-04-25T17:43:36.999Z,3.08
2023-04-25T17:46:05.613Z,3.05
2023-04-25T17:48:33.664Z,3.30
2023-04-25T17:51:17.473Z,2.85
2023-04-25T17:53:45.660Z,2.58
2023-04-25T17:56:25.866Z,3.03
2023-04-25T17:58:57.416Z,2.87
2023-04-25T18:01:25.998Z,2.85
2023-04-25T18:03:54.882Z,2.97
2023-04-25T18:06:23.523Z,2.45
2023-04-25T18:08:51.785Z,2.90
2023-04-25T18:11:53.463Z,3.65
2023-04-25T18:14:22.525Z,2.97
2023-04-25T18:16:55.570Z,2.83
2023-04-25T18:19:23.986Z,2.97
2023-04-25T18:21:55.084Z,3.58
2023-04-25T18:24:26.597Z,3.42
2023-04-25T18:26:56.336Z,3.53
2023-04-25T18:29:32.956Z,4.47
2023-04-25T18:32:05.258Z,6.37
2023-04-25T18:34:34.266Z,5.78
2023-04-25T18:37:02.729Z,6.93
2023-04-25T18:39:31.425Z,6.90
2023-04-25T18:42:05.693Z,6.55
2023-04-25T18:44:40.244Z,7.20
2023-04-25T18:47:09.521Z,6.60
2023-04-25T18:49:38.854Z,5.45
2023-04-25T18:55:01.839Z,4.87
2023-04-25T18:57:31.774Z,5.20
2023-04-25T19:00:05.180Z,5.12
2023-04-25T19:02:37.280Z,5.22
2023-04-25T19:05:06.193Z,5.00
2023-04-25T19:07:34.208Z,4.50
2023-04-25T19:10:02.147Z,4.35
2023-04-25T19:12:31.121Z,4.53
2023-04-25T19:14:59.008Z,4.30
2023-04-25T19:17:30.514Z,5.25
2023-04-25T19:19:58.964Z,5.00
2023-04-25T19:22:27.773Z,5.62
2023-04-25T19:25:03.136Z,5.37
2023-04-25T19:27:39.181Z,4.95
2023-04-25T19:30:11.210Z,5.05
2023-04-25T19:32:39.796Z,5.15
2023-04-25T19:35:11.609Z,5.50
2023-04-25T19:37:46.859Z,5.05
2023-04-25T19:40:16.432Z,5.22
2023-04-25T19:42:45.618Z,5.00
2023-04-25T19:45:14.100Z,5.07
2023-04-25T19:47:42.745Z,6.22
2023-04-25T19:50:11.761Z,5.32
2023-04-25T19:52:40.062Z,4.43
2023-04-25T19:55:09.043Z,4.40
2023-04-25T19:57:38.314Z,5.30
2023-04-25T20:00:11.135Z,5.85
2023-04-25T20:02:41.934Z,5.45
2023-04-25T20:05:12.574Z,5.18
2023-04-25T20:07:41.380Z,5.15
2023-04-25T20:10:12.940Z,5.75
2023-04-25T20:12:41.737Z,5.87
2023-04-25T20:15:12.438Z,5.85
2023-04-25T20:17:42.011Z,5.12
2023-04-25T20:20:11.763Z,5.30
2023-04-25T20:22:40.888Z,5.82
2023-04-25T20:25:10.813Z,5.35
2023-04-25T20:27:39.381Z,5.70
2023-04-25T20:30:08.538Z,5.60
2023-04-25T20:32:37.462Z,5.50
2023-04-25T20:35:08.960Z,5.47
2023-04-25T20:37:37.022Z,5.82
2023-04-25T20:40:08.322Z,5.35
2023-04-25T20:42:36.659Z,5.25
2023-04-25T20:45:13.498Z,5.20
2023-04-25T20:47:43.266Z,5.82
2023-04-25T20:50:12.551Z,6.75
2023-04-25T20:52:42.245Z,6.00
2023-04-25T20:57:58.102Z,6.20
2023-04-25T21:00:29.618Z,5.72
2023-04-25T21:02:58.111Z,6.05
2023-04-25T21:05:26.570Z,5.93
2023-04-25T21:07:54.752Z,5.75
2023-04-25T21:10:22.681Z,6.45
2023-04-25T21:12:52.772Z,5.97
2023-04-25T21:15:21.639Z,6.37
2023-04-25T21:17:51.054Z,6.40
2023-04-25T21:20:21.327Z,5.57
2023-04-25T21:22:53.851Z,6.10
2023-04-25T21:25:29.570Z,5.25
2023-04-25T21:27:59.442Z,5.80
2023-04-25T21:30:27.824Z,6.10
2023-04-25T21:32:56.625Z,5.90
2023-04-25T21:35:24.806Z,6.03
2023-04-25T21:37:53.504Z,6.25
2023-04-25T21:40:21.653Z,5.80
2023-04-25T21:42:51.931Z,5.97
2023-04-25T21:45:20.822Z,6.68
2023-04-25T21:47:48.868Z,5.80
2023-04-25T21:50:17.475Z,6.00
2023-04-25T21:53:11.273Z,6.28
2023-04-25T21:55:51.285Z,6.80
2023-04-25T21:58:20.165Z,7.28
2023-04-25T22:00:48.395Z,7.35
2023-04-25T22:03:16.898Z,8.38
2023-04-25T22:05:44.784Z,7.60
2023-04-25T22:08:12.889Z,7.85
2023-04-25T22:10:42.597Z,7.47
2023-04-25T22:13:10.591Z,8.27
2023-04-25T22:15:38.560Z,8.27
2023-04-25T22:18:20.102Z,8.30
2023-04-25T22:20:48.229Z,9.50
2023-04-25T22:23:17.464Z,9.57
2023-04-25T22:25:45.645Z,9.48
2023-04-25T22:28:15.042Z,10.05
2023-04-25T22:30:44.206Z,11.20
2023-04-25T22:33:12.191Z,9.27
2023-04-25T22:36:18.576Z,10.57
2023-04-25T22:38:58.460Z,10.90
2023-04-25T22:41:39.080Z,9.80
2023-04-25T22:44:06.958Z,9.07
2023-04-25T22:46:34.797Z,8.20
2023-04-25T22:49:03.295Z,8.50
2023-04-25T22:51:31.473Z,8.23
2023-04-25T22:53:59.669Z,9.68
2023-04-25T22:56:30.795Z,9.30
2023-04-25T22:58:58.776Z,8.93
2023-04-25T23:01:28.262Z,7.95
2023-04-25T23:04:14.619Z,8.25
2023-04-25T23:06:43.105Z,7.82
2023-04-25T23:09:12.832Z,8.50
2023-04-25T23:11:43.534Z,8.60
2023-04-25T23:14:11.898Z,7.62
2023-04-25T23:16:41.074Z,7.57
2023-04-25T23:19:09.320Z,6.80
2023-04-25T23:21:37.699Z,6.32
2023-04-25T23:24:06.262Z,7.05
2023-04-25T23:26:34.085Z,7.53
2023-04-25T23:29:02.432Z,6.95
2023-04-25T23:31:30.498Z,6.93
2023-04-25T23:33:58.328Z,6.80
2023-04-25T23:36:27.357Z,6.30
2023-04-25T23:38:56.329Z,6.50
2023-04-25T23:41:25.546Z,6.80
2023-04-25T23:43:54.023Z,6.95
2023-04-25T23:46:22.523Z,6.45
2023-04-25T23:48:50.672Z,6.47
2023-04-25T23:51:19.485Z,6.62
2023-04-25T23:53:47.431Z,6.80
2023-04-25T23:56:15.448Z,7.12
2023-04-25T23:58:43.704Z,7.40
